Time;durP1;ratioP1;P1;durP2;ratioP2;P2;SDS_P1;SDS_P2;PMS_P1;PMS_P2;Temp;Humidity;BMP_temperature;BMP_pressure;BME280_temperature;BME280_humidity;BME280_pressure;Samples;Min_cycle;Max_cycle;Signal;HPM_P1;HPM_P2
2021/06/25 00:01:34;;;;;;;5.82;2.78;;;26.10;81.30;;;;;;5054820;28;20036;-90
2021/06/25 00:03:59;;;;;;;9.25;2.90;;;26.10;81.40;;;;;;5055458;28;20033;-90
2021/06/25 00:06:25;;;;;;;6.53;3.00;;;26.10;81.60;;;;;;5055222;28;20095;-90
2021/06/25 00:08:51;;;;;;;6.30;3.08;;;26.10;81.60;;;;;;5054713;28;20028;-90
2021/06/25 00:11:17;;;;;;;11.32;3.17;;;26.00;81.80;;;;;;5054752;28;20033;-90
2021/06/25 00:13:43;;;;;;;5.78;3.38;;;26.00;82.20;;;;;;5054948;28;20025;-90
2021/06/25 00:16:08;;;;;;;6.03;3.05;;;26.00;82.40;;;;;;5056171;28;20037;-91
2021/06/25 00:18:34;;;;;;;8.38;3.15;;;26.00;82.60;;;;;;5054552;28;20057;-90
2021/06/25 00:21:00;;;;;;;11.13;3.10;;;25.90;82.70;;;;;;5054355;28;20123;-90
2021/06/25 00:23:26;;;;;;;6.53;3.20;;;25.90;82.90;;;;;;5054381;28;20027;-90
2021/06/25 00:25:52;;;;;;;6.13;3.40;;;25.90;83.10;;;;;;5055563;28;20470;-90
2021/06/25 00:28:18;;;;;;;7.50;3.20;;;25.90;83.20;;;;;;5054304;28;20064;-90
2021/06/25 00:30:44;;;;;;;8.60;3.30;;;25.80;83.40;;;;;;5054344;28;20037;-90
2021/06/25 00:33:10;;;;;;;6.72;3.40;;;25.80;83.50;;;;;;5054087;28;20028;-90
2021/06/25 00:35:37;;;;;;;9.55;3.63;;;25.80;83.60;;;;;;5054172;28;20025;-90
2021/06/25 00:38:04;;;;;;;7.40;3.30;;;25.70;83.90;;;;;;5054073;28;20029;-90
2021/06/25 00:40:31;;;;;;;8.55;3.08;;;25.70;84.10;;;;;;5054077;28;20029;-90
2021/06/25 00:42:56;;;;;;;7.63;3.30;;;25.70;84.40;;;;;;5054008;28;20028;-90
2021/06/25 00:45:23;;;;;;;6.75;3.25;;;25.60;85.00;;;;;;5053948;28;20037;-90
2021/06/25 00:47:50;;;;;;;10.35;4.07;;;25.50;85.20;;;;;;5054168;28;20112;-90
2021/06/25 00:50:25;;;;;;;4.72;3.75;;;25.50;85.80;;;;;;5055434;28;20017;-90
2021/06/25 00:52:52;;;;;;;9.63;3.85;;;25.40;86.10;;;;;;5053328;28;20021;-90
2021/06/25 00:55:19;;;;;;;8.30;4.13;;;25.30;86.50;;;;;;5054762;28;20120;-90
2021/06/25 00:57:45;;;;;;;9.77;3.90;;;25.30;87.10;;;;;;5053544;28;20143;-90
2021/06/25 01:00:12;;;;;;;9.07;4.03;;;25.20;87.40;;;;;;5053653;28;20116;-90
2021/06/25 01:02:38;;;;;;;8.13;3.90;;;25.20;87.70;;;;;;5053563;28;20017;-90
2021/06/25 01:05:06;;;;;;;5.10;3.80;;;25.10;87.90;;;;;;5053577;28;20123;-91
2021/06/25 01:07:33;;;;;;;9.13;3.65;;;25.10;88.20;;;;;;5053303;28;20021;-90
2021/06/25 01:10:00;;;;;;;9.27;3.65;;;25.00;88.80;;;;;;5054673;28;20032;-90
2021/06/25 01:12:27;;;;;;;7.35;3.78;;;24.90;89.30;;;;;;5053598;28;20035;-90
2021/06/25 01:14:53;;;;;;;4.57;3.40;;;24.90;89.90;;;;;;5053367;28;20028;-90
2021/06/25 01:17:41;;;;;;;9.43;4.28;;;24.90;90.20;;;;;;5053426;28;20037;-90
2021/06/25 01:20:13;;;;;;;7.60;4.32;;;24.80;90.60;;;;;;5053082;28;20033;-90
2021/06/25 01:22:42;;;;;;;10.25;4.75;;;24.80;90.70;;;;;;5053100;28;20386;-90
2021/06/25 01:25:11;;;;;;;8.07;4.60;;;24.70;90.80;;;;;;5053053;28;20039;-90
2021/06/25 01:27:39;;;;;;;10.43;5.32;;;24.70;91.00;;;;;;5053016;28;20025;-90
2021/06/25 01:30:17;;;;;;;12.00;5.50;;;24.70;91.20;;;;;;5053114;28;20497;-90
2021/06/25 01:32:43;;;;;;;8.60;4.70;;;24.70;91.30;;;;;;5054187;28;20054;-90
2021/06/25 01:35:10;;;;;;;7.47;4.90;;;24.60;91.60;;;;;;5054131;28;20108;-90
2021/06/25 01:37:36;;;;;;;6.70;4.20;;;24.60;91.20;;;;;;5052748;28;20025;-90
2021/06/25 01:40:04;;;;;;;11.02;4.72;;;24.60;91.30;;;;;;5052845;28;20477;-90
2021/06/25 01:42:33;;;;;;;12.95;5.07;;;24.60;91.30;;;;;;5052878;28;20112;-90
2021/06/25 01:45:04;;;;;;;8.85;5.40;;;24.60;91.30;;;;;;5052745;28;20414;-90
2021/06/25 01:47:30;;;;;;;9.73;4.68;;;24.60;91.30;;;;;;5052875;28;20033;-90
2021/06/25 01:49:56;;;;;;;9.20;4.88;;;24.60;91.30;;;;;;5055521;28;20025;-89
2021/06/25 01:52:21;;;;;;;7.15;4.78;;;24.50;91.30;;;;;;5053980;28;20497;-90
2021/06/25 01:54:48;;;;;;;10.75;5.30;;;24.50;91.30;;;;;;5053525;28;20493;-90
2021/06/25 01:57:14;;;;;;;11.45;4.90;;;24.50;91.20;;;;;;5052826;28;20037;-90
2021/06/25 01:59:41;;;;;;;8.57;4.72;;;24.50;91.20;;;;;;5052740;28;20024;-89
2021/06/25 02:02:07;;;;;;;11.02;4.30;;;24.60;91.20;;;;;;5052597;28;20040;-89
2021/06/25 02:04:33;;;;;;;10.27;4.32;;;24.60;91.10;;;;;;5052276;28;20486;-90
2021/06/25 02:06:59;;;;;;;6.30;4.40;;;24.60;91.00;;;;;;5052509;28;20052;-89
2021/06/25 02:09:24;;;;;;;8.95;4.15;;;24.60;90.90;;;;;;5052376;28;20390;-89
2021/06/25 02:11:50;;;;;;;9.40;4.43;;;24.60;90.90;;;;;;5053878;28;20116;-90
2021/06/25 02:14:18;;;;;;;9.77;4.70;;;24.60;90.90;;;;;;5053769;28;20031;-89
2021/06/25 02:16:43;;;;;;;9.95;4.32;;;24.60;90.80;;;;;;5052505;28;20086;-89
2021/06/25 02:19:09;;;;;;;10.38;5.07;;;24.60;90.80;;;;;;5052200;28;20111;-89
2021/06/25 02:21:35;;;;;;;8.77;4.43;;;24.60;90.70;;;;;;5052033;28;20060;-89
2021/06/25 02:24:01;;;;;;;8.00;4.38;;;24.60;90.60;;;;;;5052077;28;20036;-90
2021/06/25 02:26:27;;;;;;;8.85;4.45;;;24.60;90.60;;;;;;5052282;28;20367;-90
2021/06/25 02:28:53;;;;;;;7.65;4.20;;;24.60;90.60;;;;;;5052196;28;20033;-90
2021/06/25 02:31:19;;;;;;;10.05;4.78;;;24.60;90.60;;;;;;5052053;28;20059;-90
2021/06/25 02:33:45;;;;;;;8.15;5.32;;;24.60;90.50;;;;;;5052143;28;20021;-90
2021/06/25 02:36:11;;;;;;;9.77;5.05;;;24.60;90.40;;;;;;5052017;28;20031;-89
2021/06/25 02:38:37;;;;;;;11.25;5.03;;;24.60;90.50;;;;;;5053288;28;20029;-89
2021/06/25 02:41:03;;;;;;;8.10;4.80;;;24.60;90.50;;;;;;5053562;28;20466;-89
2021/06/25 02:43:29;;;;;;;8.18;4.25;;;24.60;90.50;;;;;;5053051;28;20402;-89
2021/06/25 02:45:54;;;;;;;5.28;4.10;;;24.60;90.40;;;;;;5051912;28;20048;-90
2021/06/25 02:48:20;;;;;;;10.57;4.40;;;24.60;90.30;;;;;;5053262;28;20037;-90
2021/06/25 02:50:46;;;;;;;7.13;4.35;;;24.70;90.30;;;;;;5054840;28;20374;-90
2021/06/25 02:53:12;;;;;;;10.85;4.97;;;24.70;90.20;;;;;;5051898;28;20118;-90
2021/06/25 02:55:50;;;;;;;10.10;4.60;;;24.70;90.10;;;;;;5051926;28;20097;-90
2021/06/25 02:58:20;;;;;;;9.25;4.60;;;24.70;90.00;;;;;;5051864;28;20115;-90
2021/06/25 03:00:47;;;;;;;10.40;4.60;;;24.70;90.00;;;;;;5051973;28;20067;-90
2021/06/25 03:03:13;;;;;;;9.70;4.20;;;24.80;90.10;;;;;;5051731;28;20025;-90
2021/06/25 03:05:39;;;;;;;7.53;4.72;;;24.80;90.10;;;;;;5051811;28;20052;-90
2021/06/25 03:08:05;;;;;;;9.82;4.50;;;24.90;90.00;;;;;;5051775;28;20532;-90
2021/06/25 03:10:31;;;;;;;10.25;4.45;;;24.90;89.70;;;;;;5051871;28;20040;-90
2021/06/25 03:12:56;;;;;;;8.73;4.20;;;25.00;89.30;;;;;;5050570;28;20025;-89
2021/06/25 03:15:22;;;;;;;7.03;4.90;;;25.00;89.00;;;;;;5050636;28;20025;-90
2021/06/25 03:17:48;;;;;;;6.97;5.32;;;25.10;88.70;;;;;;5054171;28;20021;-90
2021/06/25 03:20:14;;;;;;;14.60;4.70;;;25.10;88.30;;;;;;5053686;28;20020;-90
2021/06/25 03:22:40;;;;;;;9.30;4.20;;;25.20;87.80;;;;;;5053622;28;20017;-90
2021/06/25 03:25:07;;;;;;;9.48;4.80;;;25.30;87.10;;;;;;5053170;28;20075;-90
2021/06/25 03:27:34;;;;;;;11.85;5.63;;;25.50;86.60;;;;;;5053329;28;20486;-90
2021/06/25 03:30:01;;;;;;;10.73;4.82;;;25.50;86.10;;;;;;5055974;28;20029;-89
2021/06/25 03:32:27;;;;;;;9.52;4.85;;;25.60;85.70;;;;;;5056407;28;20465;-90
2021/06/25 03:34:53;;;;;;;9.23;4.55;;;25.70;85.10;;;;;;5057518;28;20024;-90
2021/06/25 03:37:18;;;;;;;10.73;4.70;;;25.80;84.70;;;;;;5054663;28;20437;-90
2021/06/25 03:39:44;;;;;;;8.93;4.75;;;25.80;84.30;;;;;;5053387;28;20402;-89
2021/06/25 03:42:10;;;;;;;7.28;4.70;;;25.90;83.90;;;;;;5053937;28;20033;-90
2021/06/25 03:44:36;;;;;;;8.65;4.90;;;25.90;83.70;;;;;;5053582;28;20743;-90
2021/06/25 03:47:02;;;;;;;11.00;4.05;;;25.90;83.50;;;;;;5053698;28;20436;-90
2021/06/25 03:49:27;;;;;;;7.10;4.55;;;26.00;83.40;;;;;;5053512;28;20033;-90
2021/06/25 03:51:53;;;;;;;13.80;4.60;;;26.00;83.10;;;;;;5054620;28;20041;-90
2021/06/25 03:54:19;;;;;;;9.43;4.70;;;26.10;82.80;;;;;;5055491;28;20024;-90
2021/06/25 03:56:44;;;;;;;5.82;4.10;;;26.10;82.50;;;;;;5055337;28;20037;-90
2021/06/25 03:59:10;;;;;;;11.60;4.45;;;26.10;82.20;;;;;;5052617;28;20044;-90
2021/06/25 04:01:36;;;;;;;8.68;4.10;;;26.10;81.90;;;;;;5052630;28;20375;-90
2021/06/25 04:04:02;;;;;;;5.53;3.90;;;26.20;82.20;;;;;;5053830;28;20409;-90
2021/06/25 04:06:28;;;;;;;7.90;4.13;;;26.20;81.50;;;;;;5056617;28;20541;-90
2021/06/25 04:08:54;;;;;;;9.50;4.25;;;26.30;81.40;;;;;;5052556;28;20150;-90
2021/06/25 04:11:20;;;;;;;10.85;3.90;;;26.30;81.10;;;;;;5054009;28;20037;-90
2021/06/25 04:13:47;;;;;;;8.23;4.05;;;26.40;80.80;;;;;;5053408;28;20497;-89
2021/06/25 04:16:13;;;;;;;7.00;4.20;;;26.40;80.60;;;;;;5054412;28;20481;-90
2021/06/25 04:18:39;;;;;;;7.72;4.05;;;26.50;80.50;;;;;;5054358;28;20031;-90
2021/06/25 04:21:05;;;;;;;8.35;4.40;;;26.50;80.30;;;;;;5054312;28;20537;-90
2021/06/25 04:23:31;;;;;;;11.02;4.80;;;26.60;80.70;;;;;;5054350;28;20029;-90
2021/06/25 04:25:57;;;;;;;13.25;4.78;;;26.60;79.90;;;;;;5055474;28;20098;-90
2021/06/25 04:28:23;;;;;;;9.57;5.15;;;26.70;79.80;;;;;;5053306;28;20478;-89
2021/06/25 04:30:50;;;;;;;11.10;5.20;;;26.80;79.50;;;;;;5054400;28;20098;-90
2021/06/25 04:33:16;;;;;;;9.90;4.93;;;26.80;79.30;;;;;;5054086;28;20032;-90
2021/06/25 04:35:43;;;;;;;7.20;4.88;;;26.90;79.00;;;;;;5054211;28;20037;-90
2021/06/25 04:38:09;;;;;;;8.98;4.88;;;27.00;78.70;;;;;;5054306;28;20059;-89
2021/06/25 04:40:38;;;;;;;9.82;4.80;;;27.10;78.20;;;;;;5054459;28;20091;-89
2021/06/25 04:43:06;;;;;;;9.40;4.53;;;27.10;77.90;;;;;;5055836;28;20052;-89
2021/06/25 04:45:35;;;;;;;10.50;4.80;;;27.20;77.60;;;;;;5061195;28;20067;-89
2021/06/25 04:48:01;;;;;;;9.32;4.32;;;27.30;77.20;;;;;;5057597;28;20056;-88
2021/06/25 04:50:27;;;;;;;7.25;3.90;;;27.50;76.90;;;;;;5056701;28;20041;-90
2021/06/25 04:52:53;;;;;;;11.70;4.13;;;27.60;76.70;;;;;;5053843;28;20112;-90
2021/06/25 04:55:18;;;;;;;9.02;3.65;;;27.80;75.70;;;;;;5055010;28;20053;-89
2021/06/25 04:57:52;;;;;;;8.70;3.78;;;27.90;75.20;;;;;;5053676;28;20025;-90
2021/06/25 05:00:20;;;;;;;6.68;3.60;;;28.10;74.70;;;;;;5054101;28;20028;-89
2021/06/25 05:02:46;;;;;;;8.40;3.97;;;28.30;74.40;;;;;;5055596;28;20024;-89
2021/06/25 05:05:12;;;;;;;13.07;3.90;;;28.50;74.10;;;;;;5054963;28;20499;-89
2021/06/25 05:07:38;;;;;;;11.90;3.90;;;28.70;73.60;;;;;;5053490;28;20377;-90
2021/06/25 05:10:05;;;;;;;8.45;3.97;;;28.90;73.30;;;;;;5053637;28;20021;-90
2021/06/25 05:12:30;;;;;;;7.47;3.85;;;29.10;72.80;;;;;;5053272;28;20055;-89
2021/06/25 05:14:56;;;;;;;7.72;4.05;;;29.30;72.30;;;;;;5053408;28;20021;-89
2021/06/25 05:17:25;;;;;;;8.05;4.00;;;29.40;71.70;;;;;;5053917;28;20116;-90
2021/06/25 05:19:50;;;;;;;8.63;4.43;;;29.60;71.40;;;;;;5054306;28;20425;-89
2021/06/25 05:22:16;;;;;;;8.85;4.03;;;29.80;71.00;;;;;;5053158;28;20040;-90
2021/06/25 05:24:42;;;;;;;11.52;3.80;;;30.00;70.70;;;;;;5053136;28;20075;-90
2021/06/25 05:27:08;;;;;;;5.97;4.00;;;30.20;70.30;;;;;;5055841;28;20534;-91
2021/06/25 05:29:34;;;;;;;11.63;4.10;;;30.40;70.00;;;;;;5072819;28;20040;-90
2021/06/25 05:32:00;;;;;;;13.45;4.30;;;30.80;70.00;;;;;;5054240;28;20048;-91
2021/06/25 05:34:27;;;;;;;15.20;4.47;;;31.20;69.70;;;;;;5053281;28;20017;-92
2021/06/25 05:36:54;;;;;;;11.85;4.57;;;31.80;69.10;;;;;;5055818;28;20029;-94
2021/06/25 05:39:19;;;;;;;8.15;4.10;;;32.30;67.30;;;;;;5052858;28;20036;-92
2021/06/25 05:41:45;;;;;;;6.07;4.10;;;32.80;66.50;;;;;;5051626;28;20025;-92
2021/06/25 05:44:11;;;;;;;6.28;4.13;;;33.40;65.30;;;;;;5054739;28;20093;-89
2021/06/25 05:46:37;;;;;;;8.57;4.30;;;33.90;64.10;;;;;;5052289;28;20045;-89
2021/06/25 05:49:02;;;;;;;10.13;4.20;;;34.30;63.00;;;;;;5053172;28;20025;-90
2021/06/25 05:51:28;;;;;;;10.13;3.63;;;34.80;62.30;;;;;;5055816;28;20033;-90
2021/06/25 05:53:54;;;;;;;9.18;3.60;;;35.10;61.00;;;;;;5053086;28;20103;-90
2021/06/25 05:56:19;;;;;;;7.13;3.90;;;35.30;60.50;;;;;;5053116;28;20036;-91
2021/06/25 05:58:45;;;;;;;10.23;3.67;;;35.60;59.80;;;;;;5052876;28;20021;-89
2021/06/25 06:01:11;;;;;;;8.43;3.78;;;35.90;59.20;;;;;;5052823;28;20091;-91
2021/06/25 06:03:38;;;;;;;5.20;3.17;;;36.40;58.30;;;;;;5052657;28;20029;-90
2021/06/25 06:06:05;;;;;;;7.75;3.15;;;36.70;57.30;;;;;;5052306;28;20040;-90
2021/06/25 06:08:30;;;;;;;9.02;3.72;;;37.20;56.20;;;;;;5052276;28;20021;-91
2021/06/25 06:10:56;;;;;;;6.72;3.30;;;37.60;55.30;;;;;;5052744;28;20025;-91
2021/06/25 06:13:22;;;;;;;7.38;3.55;;;37.90;54.80;;;;;;5052874;28;20075;-91
2021/06/25 06:15:48;;;;;;;8.77;3.60;;;38.20;53.90;;;;;;5053509;28;20032;-91
2021/06/25 06:18:27;;;;;;;12.00;3.47;;;38.30;53.10;;;;;;5052853;28;20462;-92
2021/06/25 06:20:53;;;;;;;7.63;3.50;;;38.30;52.40;;;;;;5052744;28;20033;-90
2021/06/25 06:31:33;;;;;;;6.50;3.30;;;39.20;48.10;;;;;;5054000;28;20112;-91
2021/06/25 06:34:07;;;;;;;4.55;2.83;;;39.10;48.20;;;;;;5053392;28;20017;-90
2021/06/25 06:36:35;;;;;;;7.65;3.53;;;39.10;48.70;;;;;;5052425;28;20065;-90
2021/06/25 06:39:04;;;;;;;6.18;3.17;;;39.20;48.60;;;;;;5052178;28;20429;-90
2021/06/25 06:41:31;;;;;;;7.45;3.08;;;39.40;49.20;;;;;;5054538;28;20092;-91
2021/06/25 06:43:57;;;;;;;4.75;3.42;;;39.80;48.80;;;;;;5054034;28;20436;-91
2021/06/25 06:46:24;;;;;;;7.45;3.13;;;39.90;48.40;;;;;;5051366;28;20037;-90
2021/06/25 06:48:51;;;;;;;4.93;3.15;;;40.00;48.30;;;;;;5050337;22;20156;-90
2021/06/25 06:51:16;;;;;;;6.40;3.45;;;40.10;48.10;;;;;;5036021;28;20032;-88
2021/06/25 06:53:43;;;;;;;12.05;3.13;;;40.30;47.70;;;;;;5052339;28;20025;-89
2021/06/25 06:56:13;;;;;;;5.57;2.90;;;40.40;47.70;;;;;;5052421;28;20036;-89
2021/06/25 06:58:40;;;;;;;4.88;2.70;;;40.60;47.40;;;;;;5053093;28;20034;-89
2021/06/25 07:01:06;;;;;;;5.82;3.30;;;40.90;47.70;;;;;;5053059;28;20037;-90
2021/06/25 07:03:32;;;;;;;7.05;2.97;;;41.20;47.30;;;;;;5053261;28;20064;-90
2021/06/25 07:05:58;;;;;;;3.22;2.90;;;41.30;46.80;;;;;;5038174;28;20038;-89
2021/06/25 07:08:25;;;;;;;6.50;3.25;;;41.30;46.50;;;;;;5053709;28;20120;-89
2021/06/25 07:10:51;;;;;;;5.50;2.83;;;41.10;46.30;;;;;;5060126;28;20026;-90
2021/06/25 07:13:17;;;;;;;6.03;3.22;;;40.90;46.40;;;;;;5052186;28;20036;-90
2021/06/25 07:15:42;;;;;;;5.65;3.38;;;41.00;46.50;;;;;;5036791;28;20052;-89
2021/06/25 07:18:08;;;;;;;6.63;3.30;;;41.00;46.60;;;;;;5053575;28;20044;-88
2021/06/25 07:20:34;;;;;;;7.65;3.90;;;41.10;46.60;;;;;;5052462;28;20028;-89
2021/06/25 07:23:00;;;;;;;7.68;3.10;;;41.20;46.90;;;;;;5052936;28;20034;-89
2021/06/25 07:25:27;;;;;;;4.05;3.47;;;41.40;45.90;;;;;;5052641;28;20045;-90
2021/06/25 07:27:53;;;;;;;4.22;3.13;;;41.50;45.90;;;;;;5052763;28;20033;-90
2021/06/25 07:30:19;;;;;;;6.18;3.10;;;41.60;45.90;;;;;;5055569;28;20033;-90
2021/06/25 07:32:45;;;;;;;7.82;3.40;;;41.70;45.40;;;;;;5057513;28;20060;-91
2021/06/25 07:35:11;;;;;;;5.35;3.08;;;41.80;44.90;;;;;;5056245;28;20021;-89
2021/06/25 07:37:37;;;;;;;6.95;3.33;;;41.90;45.40;;;;;;5055809;28;20029;-88
2021/06/25 07:40:05;;;;;;;5.90;3.40;;;42.20;45.30;;;;;;5044466;28;20030;-90
2021/06/25 07:42:31;;;;;;;4.28;3.20;;;42.50;44.60;;;;;;5048983;28;20033;-89
2021/06/25 07:44:56;;;;;;;5.60;3.40;;;42.60;44.20;;;;;;5073555;28;20129;-90
2021/06/25 07:47:22;;;;;;;5.90;3.35;;;42.60;44.10;;;;;;5046832;28;20459;-90
2021/06/25 07:49:49;;;;;;;4.00;2.90;;;42.50;44.10;;;;;;5056011;28;20112;-88
2021/06/25 07:52:15;;;;;;;4.43;3.47;;;42.50;44.50;;;;;;5055845;28;20028;-90
2021/06/25 07:54:40;;;;;;;7.00;3.05;;;42.70;44.20;;;;;;5053032;28;20064;-91
2021/06/25 07:57:06;;;;;;;3.03;2.70;;;43.10;44.00;;;;;;5052501;28;20052;-89
2021/06/25 07:59:32;;;;;;;6.45;3.05;;;43.40;43.90;;;;;;5053870;28;20025;-90
2021/06/25 08:02:00;;;;;;;8.13;2.80;;;43.70;44.50;;;;;;5036389;28;20029;-89
2021/06/25 08:04:28;;;;;;;6.80;3.10;;;44.00;43.40;;;;;;5048177;28;20503;-89
2021/06/25 08:06:54;;;;;;;5.70;3.30;;;44.20;43.00;;;;;;5048898;28;20048;-90
2021/06/25 08:09:19;;;;;;;5.15;2.88;;;44.30;42.10;;;;;;5048102;28;20164;-89
2021/06/25 08:11:46;;;;;;;6.57;3.10;;;44.30;42.30;;;;;;5047870;28;20022;-88
2021/06/25 08:14:15;;;;;;;4.68;3.00;;;44.50;42.40;;;;;;5048422;28;20533;-90
2021/06/25 08:16:40;;;;;;;4.38;2.70;;;44.60;42.00;;;;;;5047823;28;20048;-88
2021/06/25 08:19:09;;;;;;;5.65;2.67;;;44.50;42.20;;;;;;5051398;28;20088;-90
2021/06/25 08:21:35;;;;;;;5.60;3.03;;;44.60;42.10;;;;;;5052766;28;20022;-88
2021/06/25 08:24:01;;;;;;;4.45;2.85;;;44.60;42.10;;;;;;5052487;28;20034;-88
2021/06/25 08:26:28;;;;;;;6.28;2.60;;;44.60;42.10;;;;;;5052075;28;20049;-89
2021/06/25 08:28:57;;;;;;;4.22;2.75;;;44.60;42.00;;;;;;5037018;28;20498;-88
2021/06/25 08:31:28;;;;;;;4.32;2.80;;;44.90;42.00;;;;;;5051765;28;20394;-91
2021/06/25 08:33:59;;;;;;;4.18;2.72;;;45.30;41.80;;;;;;5051380;28;20032;-93
2021/06/25 08:36:27;;;;;;;5.20;3.10;;;45.70;41.60;;;;;;5052603;28;20037;-91
2021/06/25 08:38:54;;;;;;;4.40;2.95;;;46.00;40.90;;;;;;5056344;28;20021;-92
2021/06/25 08:41:19;;;;;;;4.40;3.00;;;46.10;40.70;;;;;;5051364;28;20163;-91
2021/06/25 08:43:45;;;;;;;7.13;2.85;;;46.10;40.20;;;;;;5051483;28;20505;-92
2021/06/25 08:46:11;;;;;;;4.30;2.63;;;46.40;40.10;;;;;;5051009;28;20136;-92
2021/06/25 08:48:40;;;;;;;3.40;2.70;;;46.60;39.90;;;;;;5061927;28;20038;-90
2021/06/25 08:51:10;;;;;;;5.90;2.70;;;46.90;39.90;;;;;;5062779;28;20048;-91
2021/06/25 08:53:36;;;;;;;6.65;2.70;;;47.00;39.60;;;;;;5062944;28;20029;-91
2021/06/25 08:56:03;;;;;;;3.90;2.80;;;47.10;39.20;;;;;;5052163;28;20030;-92
2021/06/25 08:58:29;;;;;;;3.83;2.80;;;47.20;39.20;;;;;;5035130;28;20124;-92
2021/06/25 09:00:57;;;;;;;4.15;3.00;;;47.30;39.10;;;;;;5050740;28;20120;-92
2021/06/25 09:03:24;;;;;;;5.97;2.92;;;47.30;38.90;;;;;;5052942;28;20025;-91
2021/06/25 09:05:51;;;;;;;3.78;2.70;;;47.00;38.50;;;;;;5049264;28;20092;-92
2021/06/25 09:08:33;;;;;;;5.65;2.67;;;46.90;39.10;;;;;;5050275;28;20129;-91
2021/06/25 09:11:03;;;;;;;3.95;2.55;;;46.90;39.10;;;;;;5051646;28;20036;-91
2021/06/25 09:13:39;;;;;;;3.13;2.70;;;47.10;39.10;;;;;;5049825;28;20056;-91
2021/06/25 09:16:35;;;;;;;5.97;3.00;;;47.40;39.20;;;;;;5053735;28;20021;-91
2021/06/25 09:19:05;;;;;;;4.60;2.88;;;47.20;38.50;;;;;;5051165;28;20474;-92
2021/06/25 09:21:38;;;;;;;3.28;2.75;;;47.20;39.00;;;;;;5053035;28;20048;-91
2021/06/25 09:24:25;;;;;;;5.22;2.50;;;47.50;38.80;;;;;;5053153;28;20033;-92
2021/06/25 09:26:58;;;;;;;3.33;2.60;;;47.70;37.30;;;;;;5050868;28;20032;-91
2021/06/25 09:29:33;;;;;;;2.90;2.40;;;48.00;37.80;;;;;;5065021;28;20048;-91
2021/06/25 09:32:01;;;;;;;5.88;2.58;;;48.10;38.10;;;;;;5068251;28;20060;-91
2021/06/25 09:34:53;;;;;;;4.60;2.75;;;48.10;38.00;;;;;;5069503;28;20040;-92
2021/06/25 09:37:20;;;;;;;3.42;2.45;;;48.30;37.80;;;;;;5057576;28;20041;-93
2021/06/25 09:40:01;;;;;;;5.20;2.30;;;48.30;37.90;;;;;;5053415;28;20022;-94
2021/06/25 09:42:27;;;;;;;7.97;2.50;;;48.20;37.60;;;;;;5053890;28;20052;-93
2021/06/25 09:45:08;;;;;;;8.85;2.40;;;48.30;37.90;;;;;;5062184;28;20030;-93
2021/06/25 09:47:43;;;;;;;6.75;2.50;;;48.40;37.70;;;;;;5134206;22;20112;-90
2021/06/25 09:50:17;;;;;;;3.45;2.30;;;48.40;37.70;;;;;;5137690;28;20027;-89
2021/06/25 09:52:47;;;;;;;6.00;2.40;;;48.50;37.00;;;;;;5116643;28;20094;-90
2021/06/25 09:58:42;;;;;;;7.78;3.00;;;48.30;36.70;;;;;;5114448;28;20027;-91
2021/06/25 10:01:24;;;;;;;3.38;2.55;;;48.00;37.10;;;;;;5135617;27;20023;-89
2021/06/25 10:03:58;;;;;;;4.17;2.53;;;47.60;36.90;;;;;;5118802;28;20137;-90
2021/06/25 10:06:28;;;;;;;3.78;2.60;;;47.40;37.70;;;;;;5121747;28;20288;-89
2021/06/25 10:08:58;;;;;;;6.13;2.65;;;47.50;37.90;;;;;;5119546;28;20032;-90
2021/06/25 10:11:32;;;;;;;3.40;2.30;;;47.80;37.90;;;;;;5130422;28;20051;-90
2021/06/25 10:14:06;;;;;;;5.75;2.53;;;48.40;38.10;;;;;;5135988;28;20023;-90
2021/06/25 10:16:36;;;;;;;5.22;2.65;;;48.70;37.80;;;;;;5138291;28;20014;-89
2021/06/25 10:19:03;;;;;;;5.28;2.85;;;48.90;37.60;;;;;;5137118;28;20121;-90
2021/06/25 10:21:36;;;;;;;3.80;2.60;;;48.80;37.10;;;;;;5146239;27;20035;-90
2021/06/25 10:24:09;;;;;;;2.78;2.33;;;48.70;37.20;;;;;;5118775;28;20066;-92
2021/06/25 10:26:36;;;;;;;2.42;2.20;;;48.50;37.10;;;;;;5132460;28;20039;-91
2021/06/25 10:29:09;;;;;;;2.70;2.42;;;48.30;37.40;;;;;;5138889;28;20015;-91
2021/06/25 10:31:38;;;;;;;4.38;2.50;;;48.40;38.20;;;;;;5131365;28;20114;-90
2021/06/25 10:34:05;;;;;;;4.28;2.40;;;48.90;37.40;;;;;;5135363;27;20111;-91
2021/06/25 10:36:37;;;;;;;6.72;2.40;;;49.40;37.00;;;;;;5120641;28;20047;-89
2021/06/25 10:39:10;;;;;;;5.88;2.50;;;49.80;36.80;;;;;;5134769;28;20495;-90
2021/06/25 10:41:58;;;;;;;4.43;2.40;;;50.20;36.50;;;;;;5116575;28;20484;-89
2021/06/25 10:44:43;;;;;;;5.53;2.53;;;50.50;35.60;;;;;;5117399;28;20052;-89
2021/06/25 10:47:47;;;;;;;3.75;2.53;;;50.40;36.00;;;;;;5118515;28;20437;-88
2021/06/25 10:50:21;;;;;;;6.45;2.42;;;50.50;34.60;;;;;;5117230;28;20032;-88
2021/06/25 10:53:16;;;;;;;2.47;2.20;;;50.40;35.30;;;;;;5133756;28;20034;-91
2021/06/25 10:55:57;;;;;;;3.70;2.17;;;50.20;34.90;;;;;;5126848;28;20056;-89
2021/06/25 10:58:24;;;;;;;3.00;2.10;;;50.10;35.40;;;;;;5118483;28;20099;-90
2021/06/25 11:01:00;;;;;;;3.85;2.20;;;50.20;35.00;;;;;;5118966;28;20044;-89
2021/06/25 11:03:41;;;;;;;3.13;2.38;;;50.20;34.70;;;;;;5118962;28;20040;-90
2021/06/25 11:07:18;;;;;;;3.88;2.50;;;49.70;34.00;;;;;;5121282;28;20032;-89
2021/06/25 11:09:51;;;;;;;7.57;2.28;;;49.10;34.20;;;;;;5040895;28;20124;-91
2021/06/25 11:12:29;;;;;;;3.17;2.10;;;48.70;35.30;;;;;;5115028;28;20085;-90
2021/06/25 11:15:15;;;;;;;4.32;2.40;;;49.10;35.10;;;;;;5118672;28;20119;-91
2021/06/25 11:17:44;;;;;;;2.67;1.92;;;49.30;34.40;;;;;;5117847;28;20035;-90
2021/06/25 11:20:25;;;;;;;3.58;2.58;;;49.30;34.50;;;;;;5118529;28;20023;-90
2021/06/25 11:23:18;;;;;;;3.80;2.28;;;49.20;34.10;;;;;;5126262;28;20024;-91
2021/06/25 11:25:55;;;;;;;3.38;2.05;;;48.70;34.50;;;;;;5118322;28;20122;-91
2021/06/25 11:28:25;;;;;;;3.53;2.28;;;48.20;35.60;;;;;;5117700;28;20055;-89
2021/06/25 11:30:55;;;;;;;2.95;2.20;;;47.70;35.10;;;;;;5122671;28;20035;-90
2021/06/25 11:33:50;;;;;;;4.85;2.20;;;47.30;35.50;;;;;;5118692;28;20551;-90
2021/06/25 11:36:39;;;;;;;6.97;2.30;;;46.70;36.10;;;;;;5120794;28;20038;-90
2021/06/25 11:39:09;;;;;;;6.28;2.10;;;46.40;36.40;;;;;;5141557;28;20004;-91
2021/06/25 11:42:10;;;;;;;4.05;2.10;;;46.20;36.40;;;;;;5130586;28;20024;-90
2021/06/25 11:44:39;;;;;;;2.03;1.77;;;45.70;36.90;;;;;;5118130;28;20042;-89
2021/06/25 11:47:41;;;;;;;4.30;2.15;;;45.20;37.00;;;;;;5119296;28;20541;-90
2021/06/25 11:50:15;;;;;;;6.75;2.30;;;44.80;37.50;;;;;;5118168;28;20130;-92
2021/06/25 11:52:45;;;;;;;3.90;2.20;;;44.20;37.50;;;;;;5118301;28;20038;-90
2021/06/25 11:55:13;;;;;;;2.42;2.20;;;44.00;38.00;;;;;;5118833;28;20403;-91
2021/06/25 11:57:42;;;;;;;3.50;2.15;;;43.80;38.20;;;;;;5118422;28;20089;-90
2021/06/25 12:00:16;;;;;;;2.45;2.15;;;43.70;38.30;;;;;;5118039;28;20114;-90
2021/06/25 12:02:46;;;;;;;6.45;2.70;;;43.70;38.40;;;;;;5118888;28;20043;-90
2021/06/25 12:05:16;;;;;;;4.50;2.33;;;43.50;38.80;;;;;;5117866;28;20042;-89
2021/06/25 12:07:42;;;;;;;3.88;1.98;;;43.30;38.90;;;;;;5117523;28;20035;-90
2021/06/25 12:10:19;;;;;;;4.30;2.03;;;43.30;38.90;;;;;;5119372;28;20098;-89
2021/06/25 12:12:57;;;;;;;6.15;2.30;;;43.20;39.10;;;;;;5135137;27;20365;-90
2021/06/25 12:15:29;;;;;;;2.63;1.90;;;43.00;39.20;;;;;;5125039;28;20036;-90
2021/06/25 12:17:58;;;;;;;5.43;2.05;;;43.20;39.70;;;;;;5118632;28;20039;-90
2021/06/25 12:20:30;;;;;;;3.22;1.83;;;43.70;39.60;;;;;;5118463;28;20114;-90
2021/06/25 12:23:01;;;;;;;4.70;2.03;;;44.60;39.30;;;;;;5123305;28;20043;-92
2021/06/25 12:25:32;;;;;;;2.45;2.00;;;45.60;38.70;;;;;;5121673;28;20039;-91
2021/06/25 12:27:59;;;;;;;7.38;2.10;;;46.50;37.80;;;;;;5118805;28;20480;-90
2021/06/25 12:30:25;;;;;;;3.45;2.08;;;47.40;36.80;;;;;;5119639;28;20026;-91
2021/06/25 12:33:08;;;;;;;4.80;2.10;;;48.10;36.50;;;;;;5121952;27;20111;-90
2021/06/25 12:35:53;;;;;;;4.13;2.15;;;48.50;35.50;;;;;;5126499;28;20023;-90
2021/06/25 12:38:22;;;;;;;2.70;1.98;;;48.60;34.90;;;;;;5140761;28;20095;-89
2021/06/25 12:41:10;;;;;;;2.67;2.25;;;48.70;35.00;;;;;;5137905;28;20027;-90
2021/06/25 12:43:42;;;;;;;4.55;2.53;;;48.30;35.00;;;;;;5134415;28;20019;-92
2021/06/25 12:46:28;;;;;;;7.78;1.88;;;47.90;35.10;;;;;;5125777;28;20040;-92
2021/06/25 12:48:59;;;;;;;2.47;2.00;;;47.60;34.90;;;;;;5129059;28;20353;-90
2021/06/25 12:51:44;;;;;;;5.05;2.35;;;47.30;35.00;;;;;;5124989;28;20017;-91
2021/06/25 12:54:09;;;;;;;2.40;2.20;;;47.00;35.10;;;;;;5117381;28;20023;-91
2021/06/25 12:56:38;;;;;;;4.45;2.17;;;46.80;35.10;;;;;;5132949;27;20038;-90
2021/06/25 12:59:15;;;;;;;2.90;1.90;;;46.60;35.40;;;;;;5117301;28;20020;-90
2021/06/25 13:01:44;;;;;;;2.95;1.92;;;46.50;35.40;;;;;;5117856;28;20028;-89
2021/06/25 13:04:24;;;;;;;4.40;2.00;;;46.60;35.80;;;;;;5123754;28;20488;-90
2021/06/25 13:06:59;;;;;;;5.90;2.25;;;46.80;35.20;;;;;;5130034;28;20143;-91
2021/06/25 13:09:36;;;;;;;3.42;2.20;;;46.80;34.80;;;;;;5117020;28;20028;-91